Terminal Aerodrome Forecast
Issued by NWS Tampa Bay Area, FL

Home | Current Version | Previous Version | Text Only | Print | Product List | Glossary On
Versions: 1 2 3 4 5 6 7 8 9 10 11 12 13 14 15
000
FTUS42 KTBW 232019 AAA
TAFFMY
TAF AMD
KFMY 232019Z 2320/2418 20009KT P6SM VCTS SCT025CB BKN050 OVC100
      TEMPO 2320/2324 VRB15G25KT 3SM TSRA BKN025CB
     FM240000 16006KT P6SM VCSH SCT025 OVC060
     FM241400 20006KT P6SM BKN050=

USA.gov is the U.S. government's official web portal to all federal, state and local government web resources and services.